createdAt,value
2023-02-18T00:01:34.693Z,7.32
2023-02-18T00:04:02.057Z,6.38
2023-02-18T00:06:32.063Z,6.63
2023-02-18T00:09:02.561Z,6.93
2023-02-18T00:11:32.727Z,8.65
2023-02-18T00:14:02.237Z,6.30
2023-02-18T00:16:30.634Z,7.20
2023-02-18T00:19:03.231Z,6.55
2023-02-18T00:21:32.297Z,6.30
2023-02-18T00:23:59.797Z,7.30
2023-02-18T00:26:28.005Z,6.75
2023-02-18T00:28:55.301Z,8.27
2023-02-18T00:31:28.738Z,5.78
2023-02-18T00:33:57.964Z,7.05
2023-02-18T00:36:26.482Z,7.07
2023-02-18T00:38:59.907Z,7.07
2023-02-18T00:41:28.964Z,7.30
2023-02-18T00:43:56.630Z,6.78
2023-02-18T00:46:25.518Z,6.95
2023-02-18T00:48:55.088Z,7.30
2023-02-18T00:51:24.002Z,6.47
2023-02-18T00:53:51.864Z,7.03
2023-02-18T00:56:19.578Z,7.68
2023-02-18T00:58:47.051Z,7.93
2023-02-18T01:01:14.795Z,7.50
2023-02-18T01:03:43.105Z,7.00
2023-02-18T01:06:11.872Z,7.25
2023-02-18T01:08:40.432Z,6.28
2023-02-18T01:11:09.615Z,6.75
2023-02-18T01:13:37.300Z,7.18
2023-02-18T01:16:07.484Z,7.70
2023-02-18T01:18:36.503Z,7.47
2023-02-18T01:21:08.812Z,6.55
2023-02-18T01:23:41.967Z,8.68
2023-02-18T01:26:10.615Z,7.47
2023-02-18T01:28:40.224Z,8.23
2023-02-18T01:31:10.319Z,8.30
2023-02-18T01:33:37.941Z,6.78
2023-02-18T01:36:06.532Z,6.72
2023-02-18T01:38:34.286Z,7.35
2023-02-18T01:41:01.589Z,7.03
2023-02-18T01:43:29.449Z,6.95
2023-02-18T01:46:05.829Z,7.20
2023-02-18T01:48:39.826Z,8.50
2023-02-18T01:51:32.150Z,7.38
2023-02-18T01:54:04.295Z,6.72
2023-02-18T01:56:38.005Z,7.65
2023-02-18T01:59:14.256Z,7.88
2023-02-18T02:01:44.857Z,8.18
2023-02-18T02:04:12.834Z,7.25
2023-02-18T02:06:42.443Z,6.95
2023-02-18T02:09:13.292Z,6.88
2023-02-18T02:12:05.581Z,5.93
2023-02-18T02:17:33.541Z,6.68
2023-02-18T02:20:39.055Z,9.45
2023-02-18T02:23:12.381Z,9.63
2023-02-18T02:25:51.555Z,7.03
2023-02-18T02:28:49.809Z,8.18
2023-02-18T02:31:35.135Z,7.70
2023-02-18T02:34:59.938Z,8.00
2023-02-18T02:38:02.401Z,7.00
2023-02-18T02:40:34.448Z,9.45
2023-02-18T02:43:01.736Z,7.63
2023-02-18T02:46:03.198Z,7.03
2023-02-18T02:48:37.963Z,6.55
2023-02-18T02:51:21.997Z,6.10
2023-02-18T02:53:49.835Z,6.85
2023-02-18T02:56:20.009Z,6.45
2023-02-18T02:59:00.369Z,5.80
2023-02-18T03:01:51.262Z,6.57
2023-02-18T03:04:27.426Z,6.28
2023-02-18T03:07:10.430Z,8.05
2023-02-18T03:09:55.980Z,5.45
2023-02-18T03:12:55.022Z,5.43
2023-02-18T03:15:29.760Z,5.25
2023-02-18T03:18:15.288Z,4.93
2023-02-18T03:20:59.003Z,6.00
2023-02-18T03:23:32.849Z,4.75
2023-02-18T03:26:00.913Z,4.75
2023-02-18T03:28:32.406Z,4.47
2023-02-18T03:31:15.740Z,4.25
2023-02-18T03:33:56.020Z,7.00
2023-02-18T03:36:24.760Z,4.18
2023-02-18T03:39:05.768Z,3.97
2023-02-18T03:41:33.800Z,6.18
2023-02-18T03:44:04.319Z,4.00
2023-02-18T03:46:32.367Z,4.15
2023-02-18T03:49:00.035Z,4.25
2023-02-18T03:51:27.655Z,4.28
2023-02-18T03:53:54.935Z,5.05
2023-02-18T03:56:22.905Z,4.35
2023-02-18T03:58:50.390Z,3.60
2023-02-18T04:01:17.785Z,4.45
2023-02-18T04:03:45.033Z,4.43
2023-02-18T04:06:12.210Z,3.30
2023-02-18T04:08:39.465Z,3.90
2023-02-18T04:11:06.806Z,6.35
2023-02-18T04:13:34.087Z,5.95
2023-02-18T04:16:01.320Z,6.05
2023-02-18T04:18:28.576Z,5.00
2023-02-18T04:20:55.828Z,5.88
2023-02-18T04:23:23.457Z,5.22
2023-02-18T04:25:50.781Z,5.10
2023-02-18T04:28:18.196Z,7.45
2023-02-18T04:30:46.948Z,8.85
2023-02-18T04:33:14.712Z,5.65
2023-02-18T04:35:42.236Z,7.03
2023-02-18T04:38:11.651Z,5.65
2023-02-18T04:40:38.940Z,6.50
2023-02-18T04:43:06.253Z,7.22
2023-02-18T04:45:33.563Z,8.63
2023-02-18T04:48:00.745Z,6.32
2023-02-18T04:50:28.204Z,6.32
2023-02-18T04:52:55.482Z,6.30
2023-02-18T04:55:22.766Z,5.90
2023-02-18T04:57:50.015Z,6.85
2023-02-18T05:00:19.468Z,5.93
2023-02-18T05:02:47.480Z,6.80
2023-02-18T05:05:15.631Z,5.68
2023-02-18T05:07:42.960Z,6.03
2023-02-18T05:10:11.940Z,8.13
2023-02-18T05:12:39.204Z,6.70
2023-02-18T05:15:07.186Z,6.07
2023-02-18T05:17:37.331Z,6.88
2023-02-18T05:20:06.286Z,6.65
2023-02-18T05:22:37.799Z,7.43
2023-02-18T05:25:06.317Z,7.47
2023-02-18T05:27:33.694Z,7.38
2023-02-18T05:30:00.989Z,6.90
2023-02-18T05:32:28.306Z,6.40
2023-02-18T05:34:55.556Z,6.93
2023-02-18T05:37:22.837Z,7.43
2023-02-18T05:39:50.065Z,6.80
2023-02-18T05:42:17.277Z,7.10
2023-02-18T05:44:44.711Z,7.10
2023-02-18T05:47:13.442Z,7.88
2023-02-18T05:49:42.076Z,8.45
2023-02-18T05:52:10.448Z,8.35
2023-02-18T05:54:37.836Z,7.03
2023-02-18T05:57:05.554Z,7.70
2023-02-18T05:59:32.945Z,6.18
2023-02-18T06:02:00.813Z,7.70
2023-02-18T06:04:28.079Z,7.30
2023-02-18T06:06:55.396Z,6.82
2023-02-18T06:09:22.921Z,7.57
2023-02-18T06:11:50.171Z,6.28
2023-02-18T06:14:17.613Z,8.55
2023-02-18T06:16:44.907Z,6.40
2023-02-18T06:19:12.156Z,7.68
2023-02-18T06:21:39.589Z,7.80
2023-02-18T06:24:07.201Z,7.75
2023-02-18T06:26:34.626Z,8.07
2023-02-18T06:29:01.836Z,6.95
2023-02-18T06:31:29.394Z,7.13
2023-02-18T06:33:56.736Z,8.85
2023-02-18T06:36:24.103Z,7.07
2023-02-18T06:38:51.792Z,8.85
2023-02-18T06:41:19.053Z,7.53
2023-02-18T06:43:46.318Z,8.43
2023-02-18T06:46:13.574Z,7.22
2023-02-18T06:48:40.900Z,9.07
2023-02-18T06:51:08.419Z,7.53
2023-02-18T06:53:35.724Z,8.55
2023-02-18T06:56:02.977Z,9.85
2023-02-18T06:58:30.302Z,7.18
2023-02-18T07:00:57.444Z,9.77
2023-02-18T07:03:24.794Z,9.77
2023-02-18T07:05:52.083Z,9.50
2023-02-18T07:08:19.422Z,10.48
2023-02-18T07:10:47.549Z,9.27
2023-02-18T07:13:15.085Z,11.45
2023-02-18T07:15:42.426Z,11.10
2023-02-18T07:18:09.781Z,9.90
2023-02-18T07:20:37.230Z,9.85
2023-02-18T07:23:04.490Z,10.00
2023-02-18T07:25:31.704Z,15.13
2023-02-18T07:27:58.921Z,10.90
2023-02-18T07:30:26.367Z,11.50
2023-02-18T07:32:53.642Z,13.52
2023-02-18T07:35:21.656Z,12.52
2023-02-18T07:37:49.987Z,11.00
2023-02-18T07:40:20.429Z,12.63
2023-02-18T07:42:48.031Z,13.07
2023-02-18T07:45:15.599Z,12.13
2023-02-18T07:47:42.966Z,11.00
2023-02-18T07:50:11.045Z,10.68
2023-02-18T07:52:38.356Z,12.68
2023-02-18T07:55:05.817Z,12.32
2023-02-18T07:57:33.073Z,11.68
2023-02-18T08:00:00.352Z,11.32
2023-02-18T08:02:27.582Z,12.30
2023-02-18T08:04:54.750Z,11.35
2023-02-18T08:07:23.468Z,11.63
2023-02-18T08:09:50.967Z,12.35
2023-02-18T08:12:18.625Z,11.40
2023-02-18T08:14:45.886Z,10.35
2023-02-18T08:17:13.216Z,12.38
2023-02-18T08:19:40.440Z,11.07
2023-02-18T08:22:07.642Z,10.18
2023-02-18T08:24:34.940Z,10.80
2023-02-18T08:27:02.180Z,11.30
2023-02-18T08:29:29.991Z,10.40
2023-02-18T08:32:00.076Z,9.98
2023-02-18T08:34:27.437Z,9.93
2023-02-18T08:36:54.652Z,8.73
2023-02-18T08:39:21.967Z,10.38
2023-02-18T08:41:49.149Z,8.57
2023-02-18T08:44:16.333Z,9.23
2023-02-18T08:46:43.698Z,8.15
2023-02-18T08:49:10.919Z,9.55
2023-02-18T08:51:38.108Z,9.07
2023-02-18T08:54:05.441Z,9.10
2023-02-18T08:56:33.610Z,10.18
2023-02-18T08:59:00.868Z,10.23
2023-02-18T09:01:28.236Z,8.65
2023-02-18T09:03:55.454Z,8.05
2023-02-18T09:06:22.924Z,7.77
2023-02-18T09:08:50.422Z,10.77
2023-02-18T09:11:18.688Z,9.38
2023-02-18T09:13:46.988Z,6.88
2023-02-18T09:16:18.367Z,8.75
2023-02-18T09:18:47.012Z,7.15
2023-02-18T09:21:16.291Z,7.93
2023-02-18T09:23:43.704Z,6.63
2023-02-18T09:26:15.349Z,7.40
2023-02-18T09:28:43.213Z,6.13
2023-02-18T09:31:13.957Z,8.45
2023-02-18T09:33:46.028Z,6.47
2023-02-18T09:38:41.128Z,7.15
2023-02-18T09:41:15.866Z,9.68
2023-02-18T09:43:48.449Z,6.68
2023-02-18T09:46:28.110Z,7.47
2023-02-18T09:48:56.293Z,7.40
2023-02-18T09:51:23.490Z,6.18
2023-02-18T09:53:50.830Z,6.43
2023-02-18T09:56:23.622Z,5.68
2023-02-18T09:58:52.125Z,5.85
2023-02-18T10:01:29.729Z,6.00
2023-02-18T10:04:07.318Z,6.72
2023-02-18T10:06:36.021Z,6.50
2023-02-18T10:09:10.454Z,5.93
2023-02-18T10:11:41.922Z,5.43
2023-02-18T10:14:15.057Z,7.57
2023-02-18T10:16:44.275Z,10.00
2023-02-18T10:19:32.391Z,6.30
2023-02-18T10:22:02.574Z,5.70
2023-02-18T10:24:40.256Z,6.15
2023-02-18T10:27:09.077Z,5.70
2023-02-18T10:29:36.681Z,6.38
2023-02-18T10:32:07.326Z,7.78
2023-02-18T10:34:46.035Z,5.72
2023-02-18T10:37:49.213Z,5.90
2023-02-18T10:40:34.230Z,5.88
2023-02-18T10:43:04.215Z,6.47
2023-02-18T10:45:55.759Z,5.97
2023-02-18T10:48:48.031Z,4.85
2023-02-18T10:53:45.687Z,8.50
2023-02-18T10:56:48.621Z,5.95
2023-02-18T10:59:25.611Z,6.85
2023-02-18T11:02:12.544Z,6.90
2023-02-18T11:04:41.627Z,5.95
2023-02-18T11:07:33.758Z,6.43
2023-02-18T11:10:19.183Z,6.40
2023-02-18T11:12:50.868Z,7.40
2023-02-18T11:17:51.379Z,9.35
2023-02-18T11:20:24.947Z,6.85
2023-02-18T11:22:56.900Z,5.47
2023-02-18T11:28:26.035Z,6.50
2023-02-18T11:31:00.468Z,6.05
2023-02-18T11:33:41.495Z,5.95
2023-02-18T11:36:24.497Z,8.13
2023-02-18T11:39:40.997Z,8.40
2023-02-18T11:42:08.582Z,5.68
2023-02-18T11:44:43.357Z,6.63
2023-02-18T11:47:13.756Z,6.03
2023-02-18T11:49:43.732Z,9.00
2023-02-18T11:52:11.143Z,5.88
2023-02-18T11:54:38.514Z,7.78
2023-02-18T11:57:11.193Z,8.77
2023-02-18T11:59:40.752Z,6.05
2023-02-18T12:02:11.267Z,6.07
2023-02-18T12:04:47.542Z,5.43
2023-02-18T12:07:45.303Z,6.97
2023-02-18T12:10:41.153Z,7.30
2023-02-18T12:13:18.900Z,7.78
2023-02-18T12:16:13.387Z,5.70
2023-02-18T12:18:56.579Z,7.22
2023-02-18T12:21:42.029Z,8.25
2023-02-18T12:24:45.112Z,9.90
2023-02-18T12:27:15.221Z,5.45
2023-02-18T12:29:45.347Z,6.38
2023-02-18T12:32:12.558Z,7.25
2023-02-18T12:35:10.414Z,6.10
2023-02-18T12:38:12.598Z,6.47
2023-02-18T12:41:08.354Z,5.82
2023-02-18T12:43:54.311Z,6.38
2023-02-18T12:46:23.870Z,7.50
2023-02-18T12:49:06.084Z,8.23
2023-02-18T12:54:39.096Z,6.75
2023-02-18T12:57:25.169Z,4.63
2023-02-18T13:00:04.339Z,6.82
2023-02-18T13:02:31.799Z,5.30
2023-02-18T13:05:26.580Z,5.82
2023-02-18T13:08:51.854Z,5.60
2023-02-18T13:11:44.634Z,6.95
2023-02-18T13:14:21.026Z,5.47
2023-02-18T13:16:52.603Z,5.18
2023-02-18T13:19:26.791Z,5.15
2023-02-18T13:21:58.829Z,6.63
2023-02-18T13:24:35.939Z,5.03
2023-02-18T13:27:29.433Z,5.95
2023-02-18T13:30:18.077Z,7.20
2023-02-18T13:33:03.728Z,7.05
2023-02-18T13:35:39.454Z,7.00
2023-02-18T13:38:27.643Z,6.18
2023-02-18T13:40:57.102Z,5.50
2023-02-18T13:43:31.596Z,6.68
2023-02-18T13:46:20.052Z,5.35
2023-02-18T13:48:47.324Z,5.57
2023-02-18T13:51:39.996Z,5.82
2023-02-18T13:54:17.593Z,7.97
2023-02-18T13:57:03.346Z,5.95
2023-02-18T13:59:51.007Z,5.35
2023-02-18T14:02:21.465Z,5.85
2023-02-18T14:04:51.740Z,5.63
2023-02-18T14:07:39.206Z,5.10
2023-02-18T14:10:26.461Z,5.95
2023-02-18T14:12:56.778Z,5.00
2023-02-18T14:15:24.019Z,8.50
2023-02-18T14:18:15.340Z,5.50
2023-02-18T14:20:48.170Z,6.10
2023-02-18T14:23:21.272Z,7.97
2023-02-18T14:26:14.627Z,5.65
2023-02-18T14:28:48.082Z,5.35
2023-02-18T14:31:15.466Z,7.35
2023-02-18T14:33:47.406Z,6.55
2023-02-18T14:36:42.679Z,6.85
2023-02-18T14:39:28.691Z,7.95
2023-02-18T14:42:01.653Z,6.18
2023-02-18T14:45:07.332Z,5.78
2023-02-18T14:47:43.508Z,6.88
2023-02-18T14:50:18.312Z,5.55
2023-02-18T14:52:53.490Z,6.07
2023-02-18T14:55:22.881Z,5.70
2023-02-18T14:57:59.406Z,7.75
2023-02-18T15:00:32.295Z,6.38
2023-02-18T15:03:01.701Z,7.78
2023-02-18T15:05:31.841Z,11.70
2023-02-18T15:08:04.843Z,9.27
2023-02-18T15:10:50.304Z,8.65
2023-02-18T15:13:26.884Z,7.32
2023-02-18T15:15:57.814Z,6.90
2023-02-18T15:18:35.253Z,6.90
2023-02-18T15:21:04.747Z,7.80
2023-02-18T15:23:35.825Z,8.52
2023-02-18T15:26:04.626Z,7.57
2023-02-18T15:28:33.697Z,7.05
2023-02-18T15:31:04.072Z,7.20
2023-02-18T15:33:31.371Z,6.57
2023-02-18T15:36:06.833Z,7.70
2023-02-18T15:38:34.347Z,8.15
2023-02-18T15:41:02.406Z,6.75
2023-02-18T15:43:31.137Z,8.57
2023-02-18T15:45:59.301Z,6.47
2023-02-18T15:48:47.317Z,8.02
2023-02-18T15:51:22.490Z,7.95
2023-02-18T15:53:53.986Z,6.97
2023-02-18T15:56:32.819Z,7.53
2023-02-18T15:59:21.074Z,9.05
2023-02-18T16:02:08.146Z,8.55
2023-02-18T16:04:40.549Z,7.60
2023-02-18T16:07:32.794Z,8.93
2023-02-18T16:12:52.667Z,6.97
2023-02-18T16:15:29.674Z,7.70
2023-02-18T16:17:59.090Z,8.40
2023-02-18T16:20:30.869Z,9.10
2023-02-18T16:23:03.523Z,7.88
2023-02-18T16:25:46.653Z,8.27
2023-02-18T16:28:21.844Z,8.75
2023-02-18T16:30:49.152Z,7.82
2023-02-18T16:33:16.410Z,8.70
2023-02-18T16:35:50.350Z,9.02
2023-02-18T16:38:24.260Z,9.32
2023-02-18T16:40:53.824Z,7.97
2023-02-18T16:43:23.605Z,8.57
2023-02-18T16:45:52.165Z,7.25
2023-02-18T16:48:31.019Z,8.35
2023-02-18T16:51:02.627Z,8.98
2023-02-18T16:53:29.919Z,12.50
2023-02-18T16:55:57.428Z,8.73
2023-02-18T16:58:24.699Z,10.57
2023-02-18T17:00:53.021Z,8.13
2023-02-18T17:03:21.251Z,9.95
2023-02-18T17:05:48.535Z,8.57
2023-02-18T17:08:23.421Z,9.73
2023-02-18T17:10:58.705Z,10.88
2023-02-18T17:13:30.613Z,9.77
2023-02-18T17:18:26.414Z,11.80
2023-02-18T17:20:54.171Z,7.78
2023-02-18T17:23:23.712Z,8.55
2023-02-18T17:25:52.572Z,11.18
2023-02-18T17:28:20.288Z,10.02
2023-02-18T17:30:56.727Z,14.73
2023-02-18T17:33:25.248Z,12.73
2023-02-18T17:35:52.605Z,9.75
2023-02-18T17:38:20.368Z,9.52
2023-02-18T17:40:50.074Z,9.75
2023-02-18T17:43:20.202Z,9.63
2023-02-18T17:45:54.873Z,8.75
2023-02-18T17:48:22.374Z,10.43
2023-02-18T17:50:49.974Z,9.90
2023-02-18T17:53:20.927Z,9.05
2023-02-18T17:55:50.593Z,8.27
2023-02-18T17:58:18.096Z,10.88
2023-02-18T18:00:56.330Z,9.75
2023-02-18T18:03:28.302Z,9.55
2023-02-18T18:05:57.747Z,7.93
2023-02-18T18:08:24.997Z,10.45
2023-02-18T18:11:01.231Z,10.70
2023-02-18T18:13:32.334Z,9.38
2023-02-18T18:16:00.644Z,11.52
2023-02-18T18:18:28.375Z,10.43
2023-02-18T18:20:59.520Z,11.25
2023-02-18T18:23:29.372Z,8.97
2023-02-18T18:25:58.038Z,9.80
2023-02-18T18:28:27.027Z,9.70
2023-02-18T18:30:56.300Z,9.10
2023-02-18T18:33:28.527Z,9.93
2023-02-18T18:35:57.172Z,11.02
2023-02-18T18:38:26.309Z,9.23
2023-02-18T18:40:54.642Z,10.50
2023-02-18T18:43:21.878Z,7.82
2023-02-18T18:45:49.812Z,9.15
2023-02-18T18:48:17.769Z,9.63
2023-02-18T18:50:45.015Z,12.73
2023-02-18T18:53:33.606Z,8.90
2023-02-18T18:56:03.688Z,10.88
2023-02-18T18:58:31.732Z,10.50
2023-02-18T19:01:03.202Z,11.02
2023-02-18T19:03:31.648Z,10.18
2023-02-18T19:05:58.825Z,9.13
2023-02-18T19:08:26.230Z,10.38
2023-02-18T19:10:57.529Z,11.65
2023-02-18T19:13:31.197Z,9.77
2023-02-18T19:16:07.531Z,9.85
2023-02-18T19:18:35.460Z,8.13
2023-02-18T19:21:04.746Z,11.25
2023-02-18T19:23:34.016Z,10.68
2023-02-18T19:26:01.506Z,9.63
2023-02-18T19:28:28.832Z,11.75
2023-02-18T19:30:56.198Z,9.60
2023-02-18T19:33:23.587Z,8.40
2023-02-18T19:35:50.929Z,12.02
2023-02-18T19:38:18.927Z,8.75
2023-02-18T19:40:46.777Z,10.70
2023-02-18T19:43:14.523Z,10.60
2023-02-18T19:45:44.549Z,9.00
2023-02-18T19:48:13.441Z,12.25
2023-02-18T19:50:42.248Z,8.73
2023-02-18T19:53:10.003Z,9.73
2023-02-18T19:55:37.349Z,10.02
2023-02-18T19:58:04.694Z,9.75
2023-02-18T20:00:31.980Z,11.60
2023-02-18T20:02:59.396Z,13.48
2023-02-18T20:05:26.768Z,10.95
2023-02-18T20:07:53.999Z,9.40
2023-02-18T20:10:22.713Z,10.35
2023-02-18T20:12:54.305Z,11.90
2023-02-18T20:15:22.012Z,9.85
2023-02-18T20:17:50.358Z,9.50
2023-02-18T20:20:18.695Z,9.07
2023-02-18T20:22:46.084Z,9.52
2023-02-18T20:25:13.385Z,9.57
2023-02-18T20:27:54.491Z,8.38
2023-02-18T20:30:26.954Z,9.90
2023-02-18T20:32:54.308Z,8.30
2023-02-18T20:35:21.610Z,8.70
2023-02-18T20:37:48.834Z,9.27
2023-02-18T20:40:16.588Z,9.68
2023-02-18T20:42:43.812Z,12.07
2023-02-18T20:45:11.132Z,8.15
2023-02-18T20:47:38.368Z,10.57
2023-02-18T20:50:05.825Z,9.65
2023-02-18T20:52:34.754Z,10.38
2023-02-18T20:55:02.260Z,10.38
2023-02-18T20:57:29.517Z,7.85
2023-02-18T20:59:58.444Z,10.15
2023-02-18T21:02:25.900Z,8.82
2023-02-18T21:04:53.151Z,9.38
2023-02-18T21:07:20.383Z,8.75
2023-02-18T21:09:47.571Z,8.45
2023-02-18T21:12:14.800Z,10.40
2023-02-18T21:14:42.008Z,8.70
2023-02-18T21:17:09.677Z,8.60
2023-02-18T21:19:37.074Z,8.85
2023-02-18T21:22:05.044Z,10.20
2023-02-18T21:24:32.242Z,10.77
2023-02-18T21:26:59.522Z,9.45
2023-02-18T21:29:26.724Z,8.98
2023-02-18T21:31:54.096Z,9.40
2023-02-18T21:34:22.841Z,9.35
2023-02-18T21:36:50.189Z,10.10
2023-02-18T21:39:17.400Z,9.05
2023-02-18T21:41:44.694Z,9.52
2023-02-18T21:44:11.886Z,9.43
2023-02-18T21:46:39.626Z,10.05
2023-02-18T21:49:07.185Z,9.27
2023-02-18T21:52:00.433Z,8.90
2023-02-18T21:54:30.696Z,8.98
2023-02-18T21:56:59.489Z,10.25
2023-02-18T21:59:28.646Z,9.68
2023-02-18T22:01:57.187Z,10.48
2023-02-18T22:04:25.446Z,9.57
2023-02-18T22:06:52.921Z,9.68
2023-02-18T22:09:20.290Z,10.05
2023-02-18T22:11:47.700Z,9.43
2023-02-18T22:14:15.634Z,12.48
2023-02-18T22:16:43.552Z,9.70
2023-02-18T22:19:12.438Z,12.90
2023-02-18T22:21:40.204Z,9.25
2023-02-18T22:24:08.592Z,9.35
2023-02-18T22:26:35.803Z,11.05
2023-02-18T22:29:03.143Z,9.25
2023-02-18T22:31:31.689Z,11.20
2023-02-18T22:33:59.980Z,9.82
2023-02-18T22:36:29.273Z,9.25
2023-02-18T22:38:57.543Z,9.93
2023-02-18T22:41:26.711Z,11.15
2023-02-18T22:43:56.398Z,9.38
2023-02-18T22:46:24.386Z,9.45
2023-02-18T22:48:52.091Z,9.20
2023-02-18T22:51:26.575Z,12.45
2023-02-18T22:53:55.670Z,10.00
2023-02-18T22:56:24.889Z,9.30
2023-02-18T22:58:54.451Z,9.35
2023-02-18T23:01:34.327Z,10.70
2023-02-18T23:04:13.690Z,9.68
2023-02-18T23:06:43.537Z,9.45
2023-02-18T23:09:16.297Z,9.50
2023-02-18T23:11:43.733Z,12.23
2023-02-18T23:14:20.039Z,8.75
2023-02-18T23:17:08.695Z,9.88
2023-02-18T23:19:37.114Z,9.75
2023-02-18T23:22:05.067Z,10.88
2023-02-18T23:24:36.938Z,11.20
2023-02-18T23:29:32.149Z,11.48
2023-02-18T23:31:59.416Z,11.55
2023-02-18T23:34:26.804Z,9.73
2023-02-18T23:36:54.270Z,11.00
2023-02-18T23:39:23.030Z,10.45
2023-02-18T23:41:51.620Z,10.05
2023-02-18T23:44:22.380Z,9.60
2023-02-18T23:46:50.037Z,10.02
2023-02-18T23:49:25.604Z,11.30
2023-02-18T23:51:55.076Z,13.27
2023-02-18T23:54:23.584Z,11.73
2023-02-18T23:56:50.925Z,8.98
2023-02-18T23:59:18.878Z,10.32
